sensor_id;sensor_type;location;lat;lon;timestamp;P1;durP1;ratioP1;P2;durP2;ratioP2
21727;SDS011;11026;50.560;17.852;2023-05-07T00:01:24;13.77;;;9.48;;
21727;SDS011;11026;50.560;17.852;2023-05-07T00:03:51;11.98;;;9.07;;
21727;SDS011;11026;50.560;17.852;2023-05-07T00:06:19;13.07;;;9.30;;
21727;SDS011;11026;50.560;17.852;2023-05-07T00:08:46;13.35;;;9.77;;
21727;SDS011;11026;50.560;17.852;2023-05-07T00:11:14;10.93;;;9.68;;
21727;SDS011;11026;50.560;17.852;2023-05-07T00:13:41;13.13;;;10.25;;
21727;SDS011;11026;50.560;17.852;2023-05-07T00:16:08;12.75;;;10.35;;
21727;SDS011;11026;50.560;17.852;2023-05-07T00:18:36;11.98;;;9.75;;
21727;SDS011;11026;50.560;17.852;2023-05-07T00:21:09;13.73;;;11.10;;
21727;SDS011;11026;50.560;17.852;2023-05-07T00:23:37;14.10;;;11.23;;
21727;SDS011;11026;50.560;17.852;2023-05-07T00:26:05;13.15;;;10.30;;
21727;SDS011;11026;50.560;17.852;2023-05-07T00:28:33;14.77;;;11.73;;
21727;SDS011;11026;50.560;17.852;2023-05-07T00:31:01;13.65;;;12.07;;
21727;SDS011;11026;50.560;17.852;2023-05-07T00:33:30;13.73;;;12.32;;
21727;SDS011;11026;50.560;17.852;2023-05-07T00:35:58;16.52;;;12.90;;
21727;SDS011;11026;50.560;17.852;2023-05-07T00:38:25;14.40;;;12.90;;
21727;SDS011;11026;50.560;17.852;2023-05-07T00:40:52;15.50;;;13.93;;
21727;SDS011;11026;50.560;17.852;2023-05-07T00:43:20;16.17;;;14.48;;
21727;SDS011;11026;50.560;17.852;2023-05-07T00:45:49;17.48;;;14.50;;
21727;SDS011;11026;50.560;17.852;2023-05-07T00:48:18;16.48;;;12.73;;
21727;SDS011;11026;50.560;17.852;2023-05-07T00:50:46;15.40;;;12.10;;
21727;SDS011;11026;50.560;17.852;2023-05-07T00:53:15;15.20;;;11.82;;
21727;SDS011;11026;50.560;17.852;2023-05-07T00:55:43;16.70;;;12.13;;
21727;SDS011;11026;50.560;17.852;2023-05-07T00:58:10;14.00;;;11.38;;
21727;SDS011;11026;50.560;17.852;2023-05-07T01:00:38;15.48;;;11.68;;
21727;SDS011;11026;50.560;17.852;2023-05-07T01:03:05;14.18;;;11.55;;
21727;SDS011;11026;50.560;17.852;2023-05-07T01:05:34;15.77;;;11.90;;
21727;SDS011;11026;50.560;17.852;2023-05-07T01:08:03;13.68;;;11.80;;
21727;SDS011;11026;50.560;17.852;2023-05-07T01:10:32;15.93;;;12.18;;
21727;SDS011;11026;50.560;17.852;2023-05-07T01:13:01;16.23;;;12.05;;
21727;SDS011;11026;50.560;17.852;2023-05-07T01:15:29;17.23;;;12.55;;
21727;SDS011;11026;50.560;17.852;2023-05-07T01:17:56;16.95;;;12.57;;
21727;SDS011;11026;50.560;17.852;2023-05-07T01:20:23;15.90;;;13.45;;
21727;SDS011;11026;50.560;17.852;2023-05-07T01:22:53;16.25;;;13.07;;
21727;SDS011;11026;50.560;17.852;2023-05-07T01:25:21;13.40;;;11.98;;
21727;SDS011;11026;50.560;17.852;2023-05-07T01:27:55;17.33;;;12.75;;
21727;SDS011;11026;50.560;17.852;2023-05-07T01:32:56;13.52;;;11.70;;
21727;SDS011;11026;50.560;17.852;2023-05-07T01:35:32;12.85;;;11.55;;
21727;SDS011;11026;50.560;17.852;2023-05-07T01:38:03;12.38;;;10.98;;
21727;SDS011;11026;50.560;17.852;2023-05-07T01:40:33;12.80;;;10.25;;
21727;SDS011;11026;50.560;17.852;2023-05-07T01:43:04;10.55;;;9.30;;
21727;SDS011;11026;50.560;17.852;2023-05-07T01:45:32;11.45;;;9.38;;
21727;SDS011;11026;50.560;17.852;2023-05-07T01:48:01;13.82;;;9.30;;
21727;SDS011;11026;50.560;17.852;2023-05-07T01:50:31;10.88;;;8.48;;
21727;SDS011;11026;50.560;17.852;2023-05-07T01:53:01;12.23;;;8.45;;
21727;SDS011;11026;50.560;17.852;2023-05-07T01:55:30;11.95;;;7.85;;
21727;SDS011;11026;50.560;17.852;2023-05-07T01:57:57;13.68;;;8.77;;
21727;SDS011;11026;50.560;17.852;2023-05-07T02:00:25;12.30;;;8.68;;
21727;SDS011;11026;50.560;17.852;2023-05-07T02:02:52;12.93;;;8.90;;
21727;SDS011;11026;50.560;17.852;2023-05-07T02:05:20;13.30;;;9.23;;
21727;SDS011;11026;50.560;17.852;2023-05-07T02:07:47;12.35;;;9.93;;
21727;SDS011;11026;50.560;17.852;2023-05-07T02:10:16;12.02;;;9.63;;
21727;SDS011;11026;50.560;17.852;2023-05-07T02:12:45;13.32;;;9.93;;
21727;SDS011;11026;50.560;17.852;2023-05-07T02:15:14;11.27;;;8.57;;
21727;SDS011;11026;50.560;17.852;2023-05-07T02:20:30;13.07;;;9.27;;
21727;SDS011;11026;50.560;17.852;2023-05-07T02:22:57;12.27;;;9.00;;
21727;SDS011;11026;50.560;17.852;2023-05-07T02:25:24;12.32;;;8.90;;
21727;SDS011;11026;50.560;17.852;2023-05-07T02:27:52;9.90;;;8.90;;
21727;SDS011;11026;50.560;17.852;2023-05-07T02:30:19;11.75;;;8.23;;
21727;SDS011;11026;50.560;17.852;2023-05-07T02:32:48;8.88;;;7.85;;
21727;SDS011;11026;50.560;17.852;2023-05-07T02:35:15;14.90;;;9.30;;
21727;SDS011;11026;50.560;17.852;2023-05-07T02:37:43;14.32;;;9.27;;
21727;SDS011;11026;50.560;17.852;2023-05-07T02:40:11;11.23;;;8.02;;
21727;SDS011;11026;50.560;17.852;2023-05-07T02:42:41;11.38;;;7.75;;
21727;SDS011;11026;50.560;17.852;2023-05-07T02:45:10;9.75;;;7.80;;
21727;SDS011;11026;50.560;17.852;2023-05-07T02:47:38;13.00;;;7.65;;
21727;SDS011;11026;50.560;17.852;2023-05-07T02:50:05;11.45;;;8.07;;
21727;SDS011;11026;50.560;17.852;2023-05-07T02:52:34;9.98;;;7.30;;
21727;SDS011;11026;50.560;17.852;2023-05-07T02:55:02;9.65;;;7.50;;
21727;SDS011;11026;50.560;17.852;2023-05-07T02:57:29;14.13;;;9.73;;
21727;SDS011;11026;50.560;17.852;2023-05-07T02:59:57;13.52;;;8.43;;
21727;SDS011;11026;50.560;17.852;2023-05-07T03:02:26;18.13;;;9.45;;
21727;SDS011;11026;50.560;17.852;2023-05-07T03:04:53;11.95;;;7.47;;
21727;SDS011;11026;50.560;17.852;2023-05-07T03:07:21;14.88;;;8.75;;
21727;SDS011;11026;50.560;17.852;2023-05-07T03:09:49;9.18;;;6.47;;
21727;SDS011;11026;50.560;17.852;2023-05-07T03:12:16;8.93;;;7.00;;
21727;SDS011;11026;50.560;17.852;2023-05-07T03:14:44;9.27;;;6.18;;
21727;SDS011;11026;50.560;17.852;2023-05-07T03:17:11;12.07;;;6.70;;
21727;SDS011;11026;50.560;17.852;2023-05-07T03:19:38;10.07;;;6.97;;
21727;SDS011;11026;50.560;17.852;2023-05-07T03:22:07;11.43;;;7.43;;
21727;SDS011;11026;50.560;17.852;2023-05-07T03:24:35;10.00;;;7.57;;
21727;SDS011;11026;50.560;17.852;2023-05-07T03:27:03;15.75;;;8.65;;
21727;SDS011;11026;50.560;17.852;2023-05-07T03:29:39;12.93;;;8.60;;
21727;SDS011;11026;50.560;17.852;2023-05-07T03:32:07;15.25;;;9.07;;
21727;SDS011;11026;50.560;17.852;2023-05-07T03:34:34;11.40;;;7.45;;
21727;SDS011;11026;50.560;17.852;2023-05-07T03:37:08;10.30;;;8.10;;
21727;SDS011;11026;50.560;17.852;2023-05-07T03:39:36;14.68;;;9.65;;
21727;SDS011;11026;50.560;17.852;2023-05-07T03:42:03;21.75;;;12.52;;
21727;SDS011;11026;50.560;17.852;2023-05-07T03:44:31;32.78;;;16.95;;
21727;SDS011;11026;50.560;17.852;2023-05-07T03:46:58;22.42;;;13.02;;
21727;SDS011;11026;50.560;17.852;2023-05-07T03:49:26;35.38;;;19.25;;
21727;SDS011;11026;50.560;17.852;2023-05-07T03:51:53;41.25;;;25.52;;
21727;SDS011;11026;50.560;17.852;2023-05-07T03:54:21;22.00;;;16.08;;
21727;SDS011;11026;50.560;17.852;2023-05-07T03:56:48;17.17;;;13.95;;
21727;SDS011;11026;50.560;17.852;2023-05-07T03:59:18;27.50;;;20.13;;
21727;SDS011;11026;50.560;17.852;2023-05-07T04:01:45;18.00;;;13.00;;
21727;SDS011;11026;50.560;17.852;2023-05-07T04:04:14;11.88;;;10.52;;
21727;SDS011;11026;50.560;17.852;2023-05-07T04:06:44;12.20;;;8.52;;
21727;SDS011;11026;50.560;17.852;2023-05-07T04:09:12;9.88;;;8.57;;
21727;SDS011;11026;50.560;17.852;2023-05-07T04:11:40;9.10;;;8.02;;
21727;SDS011;11026;50.560;17.852;2023-05-07T04:14:08;9.90;;;7.80;;
21727;SDS011;11026;50.560;17.852;2023-05-07T04:16:35;11.10;;;8.10;;
21727;SDS011;11026;50.560;17.852;2023-05-07T04:19:08;12.27;;;9.05;;
21727;SDS011;11026;50.560;17.852;2023-05-07T04:24:05;11.77;;;8.82;;
21727;SDS011;11026;50.560;17.852;2023-05-07T04:26:38;13.07;;;10.27;;
21727;SDS011;11026;50.560;17.852;2023-05-07T04:29:06;9.57;;;8.48;;
21727;SDS011;11026;50.560;17.852;2023-05-07T04:31:34;10.52;;;8.13;;
21727;SDS011;11026;50.560;17.852;2023-05-07T04:34:02;10.30;;;9.05;;
21727;SDS011;11026;50.560;17.852;2023-05-07T04:36:30;11.88;;;8.13;;
21727;SDS011;11026;50.560;17.852;2023-05-07T04:38:59;10.95;;;8.50;;
21727;SDS011;11026;50.560;17.852;2023-05-07T04:41:27;8.43;;;6.90;;
21727;SDS011;11026;50.560;17.852;2023-05-07T04:43:54;9.82;;;6.80;;
21727;SDS011;11026;50.560;17.852;2023-05-07T04:46:22;10.15;;;6.65;;
21727;SDS011;11026;50.560;17.852;2023-05-07T04:48:57;8.43;;;6.63;;
21727;SDS011;11026;50.560;17.852;2023-05-07T04:51:25;7.32;;;6.32;;
21727;SDS011;11026;50.560;17.852;2023-05-07T04:53:52;8.00;;;6.70;;
21727;SDS011;11026;50.560;17.852;2023-05-07T04:56:19;9.18;;;7.22;;
21727;SDS011;11026;50.560;17.852;2023-05-07T04:58:48;9.82;;;7.45;;
21727;SDS011;11026;50.560;17.852;2023-05-07T05:01:15;8.75;;;7.70;;
21727;SDS011;11026;50.560;17.852;2023-05-07T05:03:45;8.40;;;7.03;;
21727;SDS011;11026;50.560;17.852;2023-05-07T05:06:12;8.80;;;7.85;;
21727;SDS011;11026;50.560;17.852;2023-05-07T05:08:40;7.05;;;6.18;;
21727;SDS011;11026;50.560;17.852;2023-05-07T05:11:08;7.30;;;6.40;;
21727;SDS011;11026;50.560;17.852;2023-05-07T05:13:36;6.80;;;5.78;;
21727;SDS011;11026;50.560;17.852;2023-05-07T05:16:03;6.93;;;6.22;;
21727;SDS011;11026;50.560;17.852;2023-05-07T05:18:32;7.72;;;5.80;;
21727;SDS011;11026;50.560;17.852;2023-05-07T05:21:00;7.38;;;5.35;;
21727;SDS011;11026;50.560;17.852;2023-05-07T05:23:27;5.32;;;4.82;;
21727;SDS011;11026;50.560;17.852;2023-05-07T05:25:58;5.35;;;4.85;;
21727;SDS011;11026;50.560;17.852;2023-05-07T05:28:25;7.68;;;6.07;;
21727;SDS011;11026;50.560;17.852;2023-05-07T05:30:55;6.25;;;4.75;;
21727;SDS011;11026;50.560;17.852;2023-05-07T05:33:22;5.28;;;4.63;;
21727;SDS011;11026;50.560;17.852;2023-05-07T05:35:51;7.45;;;6.55;;
21727;SDS011;11026;50.560;17.852;2023-05-07T05:38:18;8.43;;;6.30;;
21727;SDS011;11026;50.560;17.852;2023-05-07T05:40:47;7.20;;;6.25;;
21727;SDS011;11026;50.560;17.852;2023-05-07T05:43:15;7.45;;;6.30;;
21727;SDS011;11026;50.560;17.852;2023-05-07T05:45:44;6.15;;;5.28;;
21727;SDS011;11026;50.560;17.852;2023-05-07T05:48:12;5.90;;;5.07;;
21727;SDS011;11026;50.560;17.852;2023-05-07T05:50:39;5.85;;;5.30;;
21727;SDS011;11026;50.560;17.852;2023-05-07T05:53:08;6.60;;;5.75;;
21727;SDS011;11026;50.560;17.852;2023-05-07T05:55:35;7.03;;;5.45;;
21727;SDS011;11026;50.560;17.852;2023-05-07T05:58:03;7.72;;;5.18;;
21727;SDS011;11026;50.560;17.852;2023-05-07T06:00:30;7.30;;;4.90;;
21727;SDS011;11026;50.560;17.852;2023-05-07T06:02:58;5.93;;;4.70;;
21727;SDS011;11026;50.560;17.852;2023-05-07T06:05:27;5.85;;;4.72;;
21727;SDS011;11026;50.560;17.852;2023-05-07T06:07:55;6.32;;;4.50;;
21727;SDS011;11026;50.560;17.852;2023-05-07T06:10:23;5.03;;;4.60;;
21727;SDS011;11026;50.560;17.852;2023-05-07T06:12:52;5.55;;;4.22;;
21727;SDS011;11026;50.560;17.852;2023-05-07T06:15:20;6.18;;;4.38;;
21727;SDS011;11026;50.560;17.852;2023-05-07T06:17:48;5.38;;;4.53;;
21727;SDS011;11026;50.560;17.852;2023-05-07T06:20:17;5.05;;;4.20;;
21727;SDS011;11026;50.560;17.852;2023-05-07T06:22:44;4.40;;;4.00;;
21727;SDS011;11026;50.560;17.852;2023-05-07T06:25:11;5.18;;;3.97;;
21727;SDS011;11026;50.560;17.852;2023-05-07T06:27:39;4.55;;;3.80;;
21727;SDS011;11026;50.560;17.852;2023-05-07T06:30:07;6.03;;;3.85;;
21727;SDS011;11026;50.560;17.852;2023-05-07T06:32:41;4.38;;;3.97;;
21727;SDS011;11026;50.560;17.852;2023-05-07T06:35:10;5.28;;;3.90;;
21727;SDS011;11026;50.560;17.852;2023-05-07T06:37:40;5.30;;;4.47;;
21727;SDS011;11026;50.560;17.852;2023-05-07T06:40:09;5.95;;;3.65;;
21727;SDS011;11026;50.560;17.852;2023-05-07T06:42:38;4.10;;;3.20;;
21727;SDS011;11026;50.560;17.852;2023-05-07T06:45:06;4.72;;;3.25;;
21727;SDS011;11026;50.560;17.852;2023-05-07T06:47:35;4.80;;;3.70;;
21727;SDS011;11026;50.560;17.852;2023-05-07T06:50:02;4.82;;;3.78;;
21727;SDS011;11026;50.560;17.852;2023-05-07T06:52:30;5.70;;;3.63;;
21727;SDS011;11026;50.560;17.852;2023-05-07T06:54:57;4.32;;;3.63;;
21727;SDS011;11026;50.560;17.852;2023-05-07T06:57:25;5.32;;;4.00;;
21727;SDS011;11026;50.560;17.852;2023-05-07T06:59:52;6.00;;;3.85;;
21727;SDS011;11026;50.560;17.852;2023-05-07T07:02:20;4.70;;;4.00;;
21727;SDS011;11026;50.560;17.852;2023-05-07T07:04:47;5.88;;;5.07;;
21727;SDS011;11026;50.560;17.852;2023-05-07T07:07:15;5.18;;;4.70;;
21727;SDS011;11026;50.560;17.852;2023-05-07T07:09:43;5.30;;;4.68;;
21727;SDS011;11026;50.560;17.852;2023-05-07T07:12:10;5.22;;;4.10;;
21727;SDS011;11026;50.560;17.852;2023-05-07T07:17:14;5.75;;;4.93;;
21727;SDS011;11026;50.560;17.852;2023-05-07T07:19:42;5.88;;;4.53;;
21727;SDS011;11026;50.560;17.852;2023-05-07T07:22:10;4.80;;;4.22;;
21727;SDS011;11026;50.560;17.852;2023-05-07T07:24:38;6.00;;;4.57;;
21727;SDS011;11026;50.560;17.852;2023-05-07T07:27:05;5.57;;;4.78;;
21727;SDS011;11026;50.560;17.852;2023-05-07T07:29:32;6.13;;;5.53;;
21727;SDS011;11026;50.560;17.852;2023-05-07T07:32:00;7.38;;;6.57;;
21727;SDS011;11026;50.560;17.852;2023-05-07T07:34:27;7.28;;;6.47;;
21727;SDS011;11026;50.560;17.852;2023-05-07T07:36:55;8.70;;;7.00;;
21727;SDS011;11026;50.560;17.852;2023-05-07T07:39:23;7.85;;;7.10;;
21727;SDS011;11026;50.560;17.852;2023-05-07T07:41:50;8.30;;;6.82;;
21727;SDS011;11026;50.560;17.852;2023-05-07T07:44:18;6.93;;;6.32;;
21727;SDS011;11026;50.560;17.852;2023-05-07T07:46:45;8.32;;;6.65;;
21727;SDS011;11026;50.560;17.852;2023-05-07T07:49:14;7.95;;;7.15;;
21727;SDS011;11026;50.560;17.852;2023-05-07T07:51:41;7.47;;;6.78;;
21727;SDS011;11026;50.560;17.852;2023-05-07T07:54:09;7.40;;;5.75;;
21727;SDS011;11026;50.560;17.852;2023-05-07T07:56:37;6.65;;;5.72;;
21727;SDS011;11026;50.560;17.852;2023-05-07T07:59:05;6.45;;;5.70;;
21727;SDS011;11026;50.560;17.852;2023-05-07T08:01:34;7.13;;;5.65;;
21727;SDS011;11026;50.560;17.852;2023-05-07T08:04:09;9.93;;;6.80;;
21727;SDS011;11026;50.560;17.852;2023-05-07T08:06:43;13.02;;;8.20;;
21727;SDS011;11026;50.560;17.852;2023-05-07T08:09:11;46.10;;;21.08;;
21727;SDS011;11026;50.560;17.852;2023-05-07T08:11:38;9.75;;;6.15;;
21727;SDS011;11026;50.560;17.852;2023-05-07T08:14:07;23.17;;;12.35;;
21727;SDS011;11026;50.560;17.852;2023-05-07T08:16:34;9.32;;;7.82;;
21727;SDS011;11026;50.560;17.852;2023-05-07T08:19:02;64.78;;;25.60;;
21727;SDS011;11026;50.560;17.852;2023-05-07T08:21:29;103.47;;;40.13;;
21727;SDS011;11026;50.560;17.852;2023-05-07T08:24:00;56.47;;;23.02;;
21727;SDS011;11026;50.560;17.852;2023-05-07T08:26:34;30.88;;;14.88;;
21727;SDS011;11026;50.560;17.852;2023-05-07T08:29:02;7.57;;;5.47;;
21727;SDS011;11026;50.560;17.852;2023-05-07T08:31:30;6.05;;;5.45;;
21727;SDS011;11026;50.560;17.852;2023-05-07T08:33:58;5.53;;;5.03;;
21727;SDS011;11026;50.560;17.852;2023-05-07T08:36:27;6.97;;;5.53;;
21727;SDS011;11026;50.560;17.852;2023-05-07T08:38:55;6.88;;;6.15;;
21727;SDS011;11026;50.560;17.852;2023-05-07T08:41:22;5.78;;;5.18;;
21727;SDS011;11026;50.560;17.852;2023-05-07T08:43:57;5.65;;;5.15;;
21727;SDS011;11026;50.560;17.852;2023-05-07T08:46:27;8.98;;;7.72;;
21727;SDS011;11026;50.560;17.852;2023-05-07T08:49:01;6.90;;;6.15;;
21727;SDS011;11026;50.560;17.852;2023-05-07T08:51:31;6.45;;;5.28;;
21727;SDS011;11026;50.560;17.852;2023-05-07T08:53:58;7.18;;;6.47;;
21727;SDS011;11026;50.560;17.852;2023-05-07T08:56:28;5.35;;;4.85;;
21727;SDS011;11026;50.560;17.852;2023-05-07T08:58:55;5.75;;;5.05;;
21727;SDS011;11026;50.560;17.852;2023-05-07T09:01:25;5.80;;;5.22;;
21727;SDS011;11026;50.560;17.852;2023-05-07T09:03:54;5.00;;;4.47;;
21727;SDS011;11026;50.560;17.852;2023-05-07T09:06:22;4.97;;;4.50;;
21727;SDS011;11026;50.560;17.852;2023-05-07T09:08:53;5.93;;;5.00;;
21727;SDS011;11026;50.560;17.852;2023-05-07T09:11:22;8.32;;;6.70;;
21727;SDS011;11026;50.560;17.852;2023-05-07T09:13:54;5.65;;;4.95;;
21727;SDS011;11026;50.560;17.852;2023-05-07T09:16:23;6.82;;;6.07;;
21727;SDS011;11026;50.560;17.852;2023-05-07T09:18:53;5.85;;;5.32;;
21727;SDS011;11026;50.560;17.852;2023-05-07T09:21:21;6.10;;;5.53;;
21727;SDS011;11026;50.560;17.852;2023-05-07T09:23:54;8.18;;;7.40;;
21727;SDS011;11026;50.560;17.852;2023-05-07T09:26:22;8.50;;;6.38;;
21727;SDS011;11026;50.560;17.852;2023-05-07T09:28:51;7.53;;;6.78;;
21727;SDS011;11026;50.560;17.852;2023-05-07T09:31:19;9.25;;;6.60;;
21727;SDS011;11026;50.560;17.852;2023-05-07T09:33:48;10.20;;;7.88;;
21727;SDS011;11026;50.560;17.852;2023-05-07T09:36:16;6.32;;;5.72;;
21727;SDS011;11026;50.560;17.852;2023-05-07T09:38:44;6.90;;;5.60;;
21727;SDS011;11026;50.560;17.852;2023-05-07T09:41:13;5.10;;;4.60;;
21727;SDS011;11026;50.560;17.852;2023-05-07T09:43:40;5.20;;;4.70;;
21727;SDS011;11026;50.560;17.852;2023-05-07T09:46:14;5.55;;;5.05;;
21727;SDS011;11026;50.560;17.852;2023-05-07T09:48:43;4.88;;;4.45;;
21727;SDS011;11026;50.560;17.852;2023-05-07T09:51:15;4.90;;;4.40;;
21727;SDS011;11026;50.560;17.852;2023-05-07T09:54:06;5.55;;;5.03;;
21727;SDS011;11026;50.560;17.852;2023-05-07T09:56:34;5.75;;;5.15;;
21727;SDS011;11026;50.560;17.852;2023-05-07T09:59:04;4.53;;;3.70;;
21727;SDS011;11026;50.560;17.852;2023-05-07T10:01:35;6.10;;;5.20;;
21727;SDS011;11026;50.560;17.852;2023-05-07T10:04:04;5.55;;;4.72;;
21727;SDS011;11026;50.560;17.852;2023-05-07T10:06:34;4.25;;;3.85;;
21727;SDS011;11026;50.560;17.852;2023-05-07T10:09:03;5.03;;;4.57;;
21727;SDS011;11026;50.560;17.852;2023-05-07T10:11:33;4.00;;;3.60;;
21727;SDS011;11026;50.560;17.852;2023-05-07T10:14:02;5.30;;;4.80;;
21727;SDS011;11026;50.560;17.852;2023-05-07T10:16:32;5.13;;;4.28;;
21727;SDS011;11026;50.560;17.852;2023-05-07T10:19:08;5.03;;;4.63;;
21727;SDS011;11026;50.560;17.852;2023-05-07T10:21:39;6.18;;;5.57;;
21727;SDS011;11026;50.560;17.852;2023-05-07T10:24:18;6.65;;;6.05;;
21727;SDS011;11026;50.560;17.852;2023-05-07T10:26:50;8.00;;;6.93;;
21727;SDS011;11026;50.560;17.852;2023-05-07T10:34:42;10.23;;;7.85;;
21727;SDS011;11026;50.560;17.852;2023-05-07T10:37:13;7.03;;;6.38;;
21727;SDS011;11026;50.560;17.852;2023-05-07T10:39:41;6.40;;;5.90;;
21727;SDS011;11026;50.560;17.852;2023-05-07T10:42:10;6.07;;;5.47;;
21727;SDS011;11026;50.560;17.852;2023-05-07T10:44:39;7.07;;;6.47;;
21727;SDS011;11026;50.560;17.852;2023-05-07T10:47:08;7.10;;;6.00;;
21727;SDS011;11026;50.560;17.852;2023-05-07T10:52:23;20.25;;;15.18;;
21727;SDS011;11026;50.560;17.852;2023-05-07T10:55:38;9.73;;;8.80;;
21727;SDS011;11026;50.560;17.852;2023-05-07T10:57:49;8.32;;;7.53;;
21727;SDS011;11026;50.560;17.852;2023-05-07T11:05:32;5.70;;;5.20;;
21727;SDS011;11026;50.560;17.852;2023-05-07T11:08:04;7.03;;;6.15;;
21727;SDS011;11026;50.560;17.852;2023-05-07T11:10:54;6.65;;;6.00;;
21727;SDS011;11026;50.560;17.852;2023-05-07T11:13:42;18.52;;;9.02;;
21727;SDS011;11026;50.560;17.852;2023-05-07T11:16:20;11.50;;;8.07;;
21727;SDS011;11026;50.560;17.852;2023-05-07T11:18:51;18.10;;;13.32;;
21727;SDS011;11026;50.560;17.852;2023-05-07T11:24:09;10.23;;;8.43;;
21727;SDS011;11026;50.560;17.852;2023-05-07T11:26:47;16.42;;;10.70;;
21727;SDS011;11026;50.560;17.852;2023-05-07T11:29:21;13.57;;;8.38;;
21727;SDS011;11026;50.560;17.852;2023-05-07T11:31:53;8.32;;;6.57;;
21727;SDS011;11026;50.560;17.852;2023-05-07T11:34:25;8.27;;;6.55;;
21727;SDS011;11026;50.560;17.852;2023-05-07T11:36:55;6.40;;;5.80;;
21727;SDS011;11026;50.560;17.852;2023-05-07T11:39:26;5.47;;;4.90;;
21727;SDS011;11026;50.560;17.852;2023-05-07T11:42:00;7.22;;;5.85;;
21727;SDS011;11026;50.560;17.852;2023-05-07T11:44:43;6.32;;;5.00;;
21727;SDS011;11026;50.560;17.852;2023-05-07T11:47:17;10.77;;;7.18;;
21727;SDS011;11026;50.560;17.852;2023-05-07T11:49:48;9.68;;;5.97;;
21727;SDS011;11026;50.560;17.852;2023-05-07T11:52:18;5.60;;;4.97;;
21727;SDS011;11026;50.560;17.852;2023-05-07T11:54:50;7.45;;;6.75;;
21727;SDS011;11026;50.560;17.852;2023-05-07T11:57:19;15.73;;;11.43;;
21727;SDS011;11026;50.560;17.852;2023-05-07T11:59:47;11.50;;;8.18;;
21727;SDS011;11026;50.560;17.852;2023-05-07T12:02:27;9.27;;;7.60;;
21727;SDS011;11026;50.560;17.852;2023-05-07T12:05:02;9.88;;;7.88;;
21727;SDS011;11026;50.560;17.852;2023-05-07T12:07:41;18.15;;;10.80;;
21727;SDS011;11026;50.560;17.852;2023-05-07T12:10:08;11.63;;;9.68;;
21727;SDS011;11026;50.560;17.852;2023-05-07T12:12:59;13.00;;;10.30;;
21727;SDS011;11026;50.560;17.852;2023-05-07T12:15:37;11.50;;;9.02;;
21727;SDS011;11026;50.560;17.852;2023-05-07T12:18:19;8.18;;;7.28;;
21727;SDS011;11026;50.560;17.852;2023-05-07T12:20:48;6.88;;;6.18;;
21727;SDS011;11026;50.560;17.852;2023-05-07T12:23:22;7.43;;;6.72;;
21727;SDS011;11026;50.560;17.852;2023-05-07T12:25:57;9.15;;;7.30;;
21727;SDS011;11026;50.560;17.852;2023-05-07T12:28:27;15.27;;;8.68;;
21727;SDS011;11026;50.560;17.852;2023-05-07T12:31:00;11.60;;;7.90;;
21727;SDS011;11026;50.560;17.852;2023-05-07T12:33:30;6.20;;;5.65;;
21727;SDS011;11026;50.560;17.852;2023-05-07T12:36:05;6.95;;;6.03;;
21727;SDS011;11026;50.560;17.852;2023-05-07T12:38:37;6.78;;;6.07;;
21727;SDS011;11026;50.560;17.852;2023-05-07T12:41:13;7.40;;;5.70;;
21727;SDS011;11026;50.560;17.852;2023-05-07T12:44:03;7.47;;;4.90;;
21727;SDS011;11026;50.560;17.852;2023-05-07T12:46:38;7.30;;;5.30;;
21727;SDS011;11026;50.560;17.852;2023-05-07T12:49:07;7.28;;;5.90;;
21727;SDS011;11026;50.560;17.852;2023-05-07T12:51:36;10.65;;;6.40;;
21727;SDS011;11026;50.560;17.852;2023-05-07T12:54:08;13.80;;;7.63;;
21727;SDS011;11026;50.560;17.852;2023-05-07T12:57:06;7.15;;;5.63;;
21727;SDS011;11026;50.560;17.852;2023-05-07T12:59:42;13.93;;;8.07;;
21727;SDS011;11026;50.560;17.852;2023-05-07T13:02:09;5.70;;;5.20;;
21727;SDS011;11026;50.560;17.852;2023-05-07T13:04:43;12.93;;;7.18;;
21727;SDS011;11026;50.560;17.852;2023-05-07T13:07:34;17.13;;;8.57;;
21727;SDS011;11026;50.560;17.852;2023-05-07T13:10:08;19.25;;;8.23;;
21727;SDS011;11026;50.560;17.852;2023-05-07T13:12:41;17.27;;;9.07;;
21727;SDS011;11026;50.560;17.852;2023-05-07T13:15:14;13.30;;;7.03;;
21727;SDS011;11026;50.560;17.852;2023-05-07T13:17:56;9.63;;;6.32;;
21727;SDS011;11026;50.560;17.852;2023-05-07T13:20:24;10.13;;;6.47;;
21727;SDS011;11026;50.560;17.852;2023-05-07T13:22:55;14.63;;;7.78;;
21727;SDS011;11026;50.560;17.852;2023-05-07T13:25:24;8.73;;;5.32;;
21727;SDS011;11026;50.560;17.852;2023-05-07T13:27:54;6.38;;;5.38;;
21727;SDS011;11026;50.560;17.852;2023-05-07T13:30:36;9.25;;;6.65;;
21727;SDS011;11026;50.560;17.852;2023-05-07T13:33:45;7.30;;;5.38;;
21727;SDS011;11026;50.560;17.852;2023-05-07T13:36:12;10.23;;;6.78;;
21727;SDS011;11026;50.560;17.852;2023-05-07T13:38:40;8.85;;;6.20;;
21727;SDS011;11026;50.560;17.852;2023-05-07T13:41:07;9.45;;;6.72;;
21727;SDS011;11026;50.560;17.852;2023-05-07T13:43:35;5.85;;;4.05;;
21727;SDS011;11026;50.560;17.852;2023-05-07T13:46:02;8.48;;;5.28;;
21727;SDS011;11026;50.560;17.852;2023-05-07T13:48:36;12.05;;;9.27;;
21727;SDS011;11026;50.560;17.852;2023-05-07T13:51:03;6.47;;;5.68;;
21727;SDS011;11026;50.560;17.852;2023-05-07T13:53:31;6.38;;;5.43;;
21727;SDS011;11026;50.560;17.852;2023-05-07T13:55:58;5.65;;;5.03;;
21727;SDS011;11026;50.560;17.852;2023-05-07T13:58:26;6.53;;;5.82;;
21727;SDS011;11026;50.560;17.852;2023-05-07T14:00:53;7.75;;;5.50;;
21727;SDS011;11026;50.560;17.852;2023-05-07T14:03:21;8.82;;;6.20;;
21727;SDS011;11026;50.560;17.852;2023-05-07T14:05:49;11.10;;;7.22;;
21727;SDS011;11026;50.560;17.852;2023-05-07T14:08:22;9.43;;;8.43;;
21727;SDS011;11026;50.560;17.852;2023-05-07T14:10:50;8.50;;;6.65;;
21727;SDS011;11026;50.560;17.852;2023-05-07T14:13:17;6.05;;;5.45;;
21727;SDS011;11026;50.560;17.852;2023-05-07T14:15:45;6.60;;;6.00;;
21727;SDS011;11026;50.560;17.852;2023-05-07T14:18:15;9.77;;;8.07;;
21727;SDS011;11026;50.560;17.852;2023-05-07T14:20:44;9.05;;;7.25;;
21727;SDS011;11026;50.560;17.852;2023-05-07T14:23:19;14.13;;;11.90;;
21727;SDS011;11026;50.560;17.852;2023-05-07T14:26:14;16.13;;;12.27;;
21727;SDS011;11026;50.560;17.852;2023-05-07T14:28:44;14.77;;;10.57;;
21727;SDS011;11026;50.560;17.852;2023-05-07T14:31:16;16.40;;;12.25;;
21727;SDS011;11026;50.560;17.852;2023-05-07T14:33:46;16.48;;;14.00;;
21727;SDS011;11026;50.560;17.852;2023-05-07T14:36:14;15.65;;;9.30;;
21727;SDS011;11026;50.560;17.852;2023-05-07T14:38:44;21.73;;;18.92;;
21727;SDS011;11026;50.560;17.852;2023-05-07T14:41:29;143.38;;;101.25;;
21727;SDS011;11026;50.560;17.852;2023-05-07T14:43:58;69.22;;;47.60;;
21727;SDS011;11026;50.560;17.852;2023-05-07T14:46:27;102.30;;;72.22;;
21727;SDS011;11026;50.560;17.852;2023-05-07T14:48:58;106.45;;;71.82;;
21727;SDS011;11026;50.560;17.852;2023-05-07T14:51:28;221.18;;;147.63;;
21727;SDS011;11026;50.560;17.852;2023-05-07T14:54:01;129.38;;;92.03;;
21727;SDS011;11026;50.560;17.852;2023-05-07T14:56:32;237.57;;;160.30;;
21727;SDS011;11026;50.560;17.852;2023-05-07T14:59:09;229.55;;;159.32;;
21727;SDS011;11026;50.560;17.852;2023-05-07T15:02:02;149.93;;;107.95;;
21727;SDS011;11026;50.560;17.852;2023-05-07T15:04:32;496.40;;;357.38;;
21727;SDS011;11026;50.560;17.852;2023-05-07T15:07:01;330.10;;;229.10;;
21727;SDS011;11026;50.560;17.852;2023-05-07T15:09:32;43.28;;;34.53;;